Time;durP1;ratioP1;P1;durP2;ratioP2;P2;SDS_P1;SDS_P2;PMS_P1;PMS_P2;Temp;Humidity;BMP_temperature;BMP_pressure;BME280_temperature;BME280_humidity;BME280_pressure;Samples;Min_cycle;Max_cycle;Signal;HPM_P1;HPM_P2
2022/11/20 00:01:25;;;;;;;1.20;1.10;;;17.30;78.20;;;;;;5011686;28;20263;-69
2022/11/20 00:03:53;;;;;;;1.50;1.40;;;17.30;78.00;;;;;;5013861;28;20195;-69
2022/11/20 00:06:21;;;;;;;1.48;1.20;;;17.30;78.10;;;;;;5013768;28;20183;-69
2022/11/20 00:08:47;;;;;;;2.05;1.30;;;17.30;78.20;;;;;;5013642;28;20184;-69
2022/11/20 00:11:20;;;;;;;1.40;1.30;;;17.30;78.10;;;;;;5012239;28;20211;-69
2022/11/20 00:13:49;;;;;;;2.10;1.38;;;17.30;78.00;;;;;;5012403;28;20212;-69
2022/11/20 00:16:19;;;;;;;1.38;1.33;;;17.30;77.90;;;;;;5029082;28;20188;-69
2022/11/20 00:18:45;;;;;;;1.10;1.00;;;17.30;77.80;;;;;;5013502;28;20231;-69
2022/11/20 00:21:18;;;;;;;1.38;1.27;;;17.30;77.80;;;;;;5011620;28;20246;-69
2022/11/20 00:23:44;;;;;;;1.42;1.30;;;17.30;77.80;;;;;;5031232;28;20179;-69
2022/11/20 00:26:14;;;;;;;1.38;1.27;;;17.30;77.80;;;;;;5031969;28;20194;-69
2022/11/20 00:28:41;;;;;;;2.45;1.40;;;17.30;77.80;;;;;;5031973;28;20187;-69
2022/11/20 00:31:13;;;;;;;1.30;1.20;;;17.30;77.80;;;;;;5031583;28;20179;-69
2022/11/20 00:33:40;;;;;;;2.45;1.42;;;17.30;77.80;;;;;;5015234;28;20207;-69
2022/11/20 00:36:22;;;;;;;1.40;1.30;;;17.30;77.80;;;;;;5031873;28;20240;-69
2022/11/20 00:38:56;;;;;;;1.35;1.25;;;17.30;77.80;;;;;;5031768;28;20211;-69
2022/11/20 00:41:24;;;;;;;1.40;1.17;;;17.30;78.70;;;;;;5014762;28;20202;-69
2022/11/20 00:43:53;;;;;;;1.70;1.00;;;17.30;77.80;;;;;;5014962;28;20249;-69
2022/11/20 00:46:23;;;;;;;1.17;1.10;;;17.30;77.80;;;;;;5032943;28;20181;-69
2022/11/20 00:48:49;;;;;;;1.38;1.27;;;17.30;77.80;;;;;;5015104;28;20188;-69
2022/11/20 00:51:21;;;;;;;1.40;1.25;;;17.30;77.80;;;;;;5031131;28;20194;-69
2022/11/20 00:53:47;;;;;;;1.13;1.02;;;17.30;77.80;;;;;;5013858;28;20215;-69
2022/11/20 00:56:17;;;;;;;1.20;1.10;;;17.30;77.80;;;;;;5012965;28;20172;-69
2022/11/20 00:58:46;;;;;;;1.48;1.38;;;17.30;77.80;;;;;;5012906;28;20172;-69
2022/11/20 01:01:23;;;;;;;1.20;1.10;;;17.30;77.60;;;;;;5031450;28;20285;-69
2022/11/20 01:03:52;;;;;;;1.30;1.20;;;17.30;77.60;;;;;;5032479;28;20233;-69
2022/11/20 01:06:26;;;;;;;1.20;1.08;;;17.30;77.70;;;;;;5031179;28;20203;-69
2022/11/20 01:08:56;;;;;;;1.20;1.10;;;17.20;77.50;;;;;;5031447;28;20191;-69
2022/11/20 01:11:29;;;;;;;1.02;1.02;;;17.30;77.80;;;;;;5030617;28;20712;-69
2022/11/20 01:13:58;;;;;;;1.40;0.98;;;17.30;77.80;;;;;;5013859;28;20267;-69
2022/11/20 01:16:32;;;;;;;1.08;1.08;;;17.30;77.70;;;;;;5030972;28;20195;-70
2022/11/20 01:19:01;;;;;;;1.38;1.20;;;17.30;77.60;;;;;;5031211;28;20266;-70
2022/11/20 01:21:36;;;;;;;1.30;1.20;;;17.30;77.60;;;;;;5031708;28;20219;-69
2022/11/20 01:24:03;;;;;;;1.13;1.02;;;17.20;77.40;;;;;;5030946;28;20190;-69
2022/11/20 01:26:36;;;;;;;1.05;1.05;;;17.30;77.60;;;;;;5014301;28;20198;-69
2022/11/20 01:29:04;;;;;;;1.02;1.00;;;17.30;77.50;;;;;;5030761;28;20270;-69
2022/11/20 01:31:34;;;;;;;1.30;1.20;;;17.20;77.30;;;;;;5010117;28;20336;-69
2022/11/20 01:34:08;;;;;;;1.08;0.98;;;17.20;77.30;;;;;;5010886;28;20212;-69
2022/11/20 01:36:36;;;;;;;1.38;1.27;;;17.30;77.30;;;;;;5012116;28;20191;-69
2022/11/20 01:39:07;;;;;;;0.98;0.95;;;17.20;77.20;;;;;;4995334;28;20187;-69
2022/11/20 01:44:54;;;;;;;1.20;1.10;;;17.20;77.40;;;;;;5012600;28;20184;-69
2022/11/20 01:47:35;;;;;;;1.98;1.25;;;17.20;77.40;;;;;;4994760;28;20288;-69
2022/11/20 01:50:24;;;;;;;1.10;0.98;;;17.30;77.30;;;;;;5012390;28;20278;-69
2022/11/20 01:52:57;;;;;;;1.10;1.00;;;17.20;77.20;;;;;;5010961;28;20246;-69
2022/11/20 01:55:35;;;;;;;1.38;0.90;;;17.20;77.20;;;;;;5011133;28;20346;-69
2022/11/20 01:58:02;;;;;;;0.90;0.90;;;17.20;77.20;;;;;;5027162;28;20277;-69
2022/11/20 02:00:28;;;;;;;1.80;1.15;;;17.20;77.20;;;;;;5025466;28;20186;-69
2022/11/20 02:03:01;;;;;;;1.15;1.08;;;17.20;77.20;;;;;;5013871;28;20210;-69
2022/11/20 02:05:39;;;;;;;1.35;1.00;;;17.20;77.20;;;;;;5030289;28;20191;-69
2022/11/20 02:08:06;;;;;;;1.25;0.98;;;17.20;77.30;;;;;;5031729;28;20187;-69
2022/11/20 02:10:33;;;;;;;1.08;1.08;;;17.20;77.20;;;;;;5013398;28;20199;-69
2022/11/20 02:15:45;;;;;;;1.48;1.00;;;17.30;77.10;;;;;;5016209;28;20290;-69
2022/11/20 02:18:15;;;;;;;2.35;1.10;;;17.20;77.00;;;;;;5031318;28;20209;-69
2022/11/20 02:20:49;;;;;;;1.30;1.02;;;17.20;77.00;;;;;;5013080;28;20186;-69
2022/11/20 02:23:37;;;;;;;0.85;0.85;;;17.20;77.00;;;;;;5029486;28;20207;-68
2022/11/20 02:26:10;;;;;;;1.38;1.23;;;17.20;77.10;;;;;;5031132;28;20267;-69
2022/11/20 02:28:36;;;;;;;1.38;1.17;;;17.20;77.10;;;;;;5029653;28;20222;-69
2022/11/20 02:31:02;;;;;;;1.30;1.20;;;17.20;77.20;;;;;;5030091;28;20275;-69
2022/11/20 02:33:28;;;;;;;1.10;1.00;;;17.20;77.10;;;;;;5029678;28;20341;-69
2022/11/20 02:35:55;;;;;;;1.20;1.10;;;17.20;77.20;;;;;;5029848;28;20231;-69
2022/11/20 02:38:21;;;;;;;1.10;1.00;;;17.20;77.10;;;;;;5029854;28;20250;-69
2022/11/20 02:40:46;;;;;;;1.10;1.00;;;17.20;77.20;;;;;;5029515;28;20218;-69
2022/11/20 02:43:12;;;;;;;1.20;1.10;;;17.20;77.00;;;;;;5013083;28;20298;-69
2022/11/20 02:45:38;;;;;;;0.90;0.90;;;17.20;77.00;;;;;;5029901;28;20187;-69
2022/11/20 02:48:07;;;;;;;1.27;1.00;;;17.20;77.00;;;;;;5029716;28;20179;-69
2022/11/20 02:50:33;;;;;;;0.98;0.85;;;17.20;77.00;;;;;;5030570;28;20179;-69
2022/11/20 02:52:58;;;;;;;1.05;1.05;;;17.20;76.90;;;;;;5030791;28;20273;-69
2022/11/20 02:55:24;;;;;;;1.35;1.08;;;17.20;77.00;;;;;;5027220;28;20241;-69
2022/11/20 02:57:50;;;;;;;1.10;1.10;;;17.20;77.00;;;;;;4993641;28;20188;-69
2022/11/20 03:00:16;;;;;;;0.88;0.88;;;17.20;76.90;;;;;;5009766;28;20188;-68
2022/11/20 03:02:42;;;;;;;1.30;1.10;;;17.20;76.90;;;;;;5009991;28;20255;-69
2022/11/20 03:05:08;;;;;;;0.90;0.90;;;17.20;76.90;;;;;;5009971;28;20650;-69
2022/11/20 03:07:33;;;;;;;1.27;1.17;;;17.20;76.80;;;;;;5009863;28;20188;-69
2022/11/20 03:09:59;;;;;;;1.38;1.13;;;17.20;77.00;;;;;;5009738;28;20188;-69
2022/11/20 03:12:25;;;;;;;1.10;1.00;;;17.20;77.00;;;;;;4992950;28;20243;-69
2022/11/20 03:14:51;;;;;;;1.20;1.10;;;17.20;76.90;;;;;;5009842;28;20210;-69
2022/11/20 03:17:16;;;;;;;1.23;1.13;;;17.20;77.00;;;;;;5009749;28;20180;-69
2022/11/20 03:19:42;;;;;;;1.27;1.02;;;17.20;77.00;;;;;;5010952;28;20172;-69
2022/11/20 03:22:08;;;;;;;1.15;1.08;;;17.20;77.00;;;;;;5009289;28;20713;-69
2022/11/20 03:24:34;;;;;;;0.98;0.98;;;17.20;77.00;;;;;;5009410;28;20184;-69
2022/11/20 03:26:59;;;;;;;1.00;0.90;;;17.20;77.00;;;;;;4993297;28;20190;-68
2022/11/20 03:29:25;;;;;;;1.13;0.93;;;17.20;76.90;;;;;;5017011;28;20300;-69
2022/11/20 03:31:51;;;;;;;1.25;1.17;;;17.20;76.90;;;;;;5030126;28;20215;-69
2022/11/20 03:34:17;;;;;;;1.50;1.15;;;17.20;76.90;;;;;;5030826;28;20207;-68
2022/11/20 03:36:43;;;;;;;2.03;1.15;;;17.20;77.00;;;;;;5027721;28;20249;-69
2022/11/20 03:39:09;;;;;;;1.58;1.10;;;17.20;76.80;;;;;;5012627;28;20187;-69
2022/11/20 03:41:41;;;;;;;1.65;1.10;;;17.20;76.80;;;;;;5012607;28;20211;-68
2022/11/20 03:44:10;;;;;;;1.00;0.93;;;17.20;76.80;;;;;;5014262;28;20251;-69
2022/11/20 03:46:36;;;;;;;1.08;0.98;;;17.20;76.80;;;;;;4996773;28;20184;-69
2022/11/20 03:49:03;;;;;;;2.03;1.00;;;17.20;76.80;;;;;;5012920;28;20188;-69
2022/11/20 03:51:32;;;;;;;0.90;0.90;;;17.20;76.70;;;;;;5013777;28;20262;-69
2022/11/20 03:54:03;;;;;;;1.02;1.02;;;17.20;76.60;;;;;;5012900;28;20212;-69
2022/11/20 03:56:32;;;;;;;0.98;0.88;;;17.20;76.60;;;;;;5012794;28;20188;-69
2022/11/20 03:58:59;;;;;;;0.80;0.80;;;17.20;76.60;;;;;;5012766;28;20180;-69
2022/11/20 04:01:33;;;;;;;1.13;0.80;;;17.20;76.50;;;;;;5013709;28;20192;-69
2022/11/20 04:03:59;;;;;;;1.38;0.80;;;17.20;76.70;;;;;;5012570;28;20187;-69
2022/11/20 04:06:37;;;;;;;1.35;0.98;;;17.20;76.80;;;;;;5012896;28;20195;-69
2022/11/20 04:09:05;;;;;;;0.80;0.80;;;17.20;76.70;;;;;;5012597;28;20211;-69
2022/11/20 04:11:34;;;;;;;0.93;0.93;;;17.20;76.80;;;;;;5028748;28;20244;-69
2022/11/20 04:14:04;;;;;;;0.90;0.90;;;17.20;76.70;;;;;;5028658;28;20604;-69
2022/11/20 04:16:34;;;;;;;1.48;1.02;;;17.20;77.50;;;;;;4996339;28;20191;-69
2022/11/20 04:19:03;;;;;;;1.10;0.85;;;17.20;76.70;;;;;;5012396;28;20267;-69
2022/11/20 04:21:29;;;;;;;0.88;0.88;;;17.20;76.60;;;;;;5022191;28;20203;-69
2022/11/20 04:23:56;;;;;;;1.00;0.90;;;17.20;76.50;;;;;;5032004;28;20269;-68
2022/11/20 04:26:25;;;;;;;0.90;0.90;;;17.20;76.60;;;;;;5032078;28;20257;-69
2022/11/20 04:28:51;;;;;;;0.90;0.80;;;17.20;76.50;;;;;;5031861;28;20284;-69
2022/11/20 04:31:22;;;;;;;0.85;0.85;;;17.20;76.60;;;;;;5015066;28;20305;-68
2022/11/20 04:33:49;;;;;;;0.80;0.80;;;17.20;76.60;;;;;;5031840;28;20214;-69
2022/11/20 04:36:18;;;;;;;0.98;0.80;;;17.20;76.40;;;;;;5031906;28;20726;-68
2022/11/20 04:38:44;;;;;;;1.00;0.90;;;17.20;76.40;;;;;;5031861;28;20191;-69
2022/11/20 04:41:20;;;;;;;0.90;0.80;;;17.10;76.20;;;;;;5032454;28;20179;-68
2022/11/20 04:43:52;;;;;;;1.25;1.00;;;17.20;76.40;;;;;;5032886;28;20183;-69
2022/11/20 04:46:19;;;;;;;0.80;0.80;;;17.20;76.50;;;;;;5032844;28;20198;-68
2022/11/20 04:48:47;;;;;;;1.00;0.90;;;17.20;76.50;;;;;;5031594;28;20179;-69
2022/11/20 04:51:13;;;;;;;0.70;0.70;;;17.20;76.70;;;;;;5025306;28;20208;-69
2022/11/20 04:53:39;;;;;;;0.95;0.90;;;17.20;76.50;;;;;;5011416;28;20204;-69
2022/11/20 04:56:11;;;;;;;1.45;0.90;;;17.10;76.30;;;;;;5012876;28;20184;-68
2022/11/20 04:58:39;;;;;;;0.90;0.80;;;17.20;76.50;;;;;;4995497;28;20180;-69
2022/11/20 05:01:17;;;;;;;1.27;1.10;;;17.20;76.50;;;;;;5011168;28;20275;-68
2022/11/20 05:03:44;;;;;;;0.77;0.77;;;17.20;76.40;;;;;;4995306;28;20183;-69
2022/11/20 05:06:16;;;;;;;0.82;0.77;;;17.20;76.20;;;;;;5013038;28;20234;-69
2022/11/20 05:08:43;;;;;;;0.75;0.75;;;17.20;76.30;;;;;;5012066;28;20605;-69
2022/11/20 05:11:21;;;;;;;0.80;0.80;;;17.20;76.30;;;;;;5011812;28;20184;-69
2022/11/20 05:13:48;;;;;;;0.80;0.80;;;17.20;76.30;;;;;;5011519;28;20226;-68
2022/11/20 05:16:20;;;;;;;2.40;0.90;;;17.20;77.00;;;;;;4995296;28;20184;-69
2022/11/20 05:18:47;;;;;;;1.52;1.08;;;17.20;76.40;;;;;;5012917;28;20180;-69
2022/11/20 05:21:13;;;;;;;0.60;0.60;;;17.20;76.40;;;;;;5010907;28;20650;-69
2022/11/20 05:23:40;;;;;;;0.80;0.80;;;17.20;76.30;;;;;;5011464;28;20190;-69
2022/11/20 05:26:12;;;;;;;1.13;0.77;;;17.20;76.40;;;;;;5011291;28;20200;-69
2022/11/20 05:28:38;;;;;;;0.68;0.60;;;17.10;76.10;;;;;;5012412;28;20198;-68
2022/11/20 05:31:07;;;;;;;0.82;0.75;;;17.10;76.10;;;;;;4993920;28;20275;-69
2022/11/20 05:33:35;;;;;;;1.23;0.85;;;17.20;76.30;;;;;;5012152;28;20212;-69
2022/11/20 05:36:03;;;;;;;1.15;0.77;;;17.20;76.40;;;;;;5012382;28;20238;-69
2022/11/20 05:38:29;;;;;;;0.98;0.88;;;17.10;76.10;;;;;;5012244;28;20187;-69
2022/11/20 05:41:03;;;;;;;0.70;0.70;;;17.20;76.20;;;;;;5011883;28;20242;-69
2022/11/20 05:43:35;;;;;;;0.93;0.90;;;17.20;76.20;;;;;;4994646;28;20681;-69
2022/11/20 05:46:03;;;;;;;0.75;0.75;;;17.20;76.10;;;;;;5010939;28;20192;-69
2022/11/20 05:48:30;;;;;;;0.90;0.90;;;17.10;76.00;;;;;;4994492;28;20270;-69
2022/11/20 05:50:59;;;;;;;0.90;0.90;;;17.10;76.00;;;;;;5010425;28;20680;-69
2022/11/20 05:53:25;;;;;;;0.80;0.80;;;17.10;75.90;;;;;;4994500;28;20208;-69
2022/11/20 05:56:21;;;;;;;0.82;0.80;;;17.20;76.10;;;;;;5010778;28;20187;-69
2022/11/20 05:58:48;;;;;;;0.70;0.70;;;17.20;75.90;;;;;;4993912;28;20203;-69
2022/11/20 06:01:21;;;;;;;0.80;0.80;;;17.20;76.10;;;;;;5010162;28;20188;-69
2022/11/20 06:03:50;;;;;;;0.70;0.70;;;17.20;76.10;;;;;;5011346;28;20195;-69
2022/11/20 06:06:17;;;;;;;0.80;0.80;;;17.10;76.00;;;;;;5010497;28;20188;-69
2022/11/20 06:08:44;;;;;;;0.70;0.70;;;17.20;76.20;;;;;;4994527;28;20184;-69
2022/11/20 06:11:12;;;;;;;0.70;0.70;;;17.10;76.00;;;;;;5010430;28;20184;-69
2022/11/20 06:13:39;;;;;;;0.80;0.80;;;17.20;76.10;;;;;;5011610;28;20220;-69
2022/11/20 06:16:05;;;;;;;0.75;0.73;;;17.20;76.00;;;;;;5011993;28;20545;-69
2022/11/20 06:18:31;;;;;;;0.80;0.80;;;17.20;75.90;;;;;;5010346;28;20275;-69
2022/11/20 06:21:10;;;;;;;0.80;0.80;;;17.20;75.80;;;;;;5009976;28;20180;-69
2022/11/20 06:23:37;;;;;;;0.75;0.70;;;17.20;75.80;;;;;;5010335;28;20199;-69
2022/11/20 06:26:06;;;;;;;0.88;0.88;;;17.20;75.90;;;;;;5010360;28;20276;-69
2022/11/20 06:28:32;;;;;;;1.02;0.90;;;17.10;75.70;;;;;;5011396;28;20230;-69
2022/11/20 06:30:59;;;;;;;0.82;0.82;;;17.10;75.70;;;;;;5022917;28;20191;-69
2022/11/20 06:33:25;;;;;;;0.90;0.90;;;17.20;76.10;;;;;;5029662;28;20215;-69
2022/11/20 06:35:51;;;;;;;0.80;0.80;;;17.10;75.70;;;;;;5029916;28;20182;-69
2022/11/20 06:38:17;;;;;;;0.70;0.70;;;17.10;75.70;;;;;;5030064;28;20184;-69
2022/11/20 06:40:43;;;;;;;0.85;0.70;;;17.10;75.90;;;;;;5029573;28;20182;-68
2022/11/20 06:43:10;;;;;;;0.98;0.88;;;17.10;76.00;;;;;;5029742;28;20294;-69
2022/11/20 06:45:36;;;;;;;1.05;0.80;;;17.10;75.80;;;;;;5029631;28;20274;-68
2022/11/20 06:48:03;;;;;;;0.70;0.70;;;17.10;75.90;;;;;;5030910;28;20618;-69
2022/11/20 06:50:29;;;;;;;0.90;0.90;;;17.20;75.80;;;;;;5013377;28;20279;-69
2022/11/20 06:52:54;;;;;;;0.70;0.70;;;17.10;75.80;;;;;;5012630;28;20306;-69
2022/11/20 06:55:20;;;;;;;0.90;0.90;;;17.10;75.90;;;;;;5010537;28;20202;-69
2022/11/20 06:57:46;;;;;;;0.73;0.60;;;17.10;75.70;;;;;;5027587;28;20249;-69
2022/11/20 07:00:13;;;;;;;0.70;0.70;;;17.10;75.70;;;;;;5030825;28;20218;-69
2022/11/20 07:02:39;;;;;;;0.70;0.70;;;17.20;75.80;;;;;;5028640;28;20257;-70
2022/11/20 07:05:05;;;;;;;2.88;0.90;;;17.10;75.70;;;;;;5030141;28;20179;-70
2022/11/20 07:07:30;;;;;;;0.85;0.85;;;17.20;75.80;;;;;;5030114;28;20191;-69
2022/11/20 07:09:56;;;;;;;0.80;0.80;;;17.20;75.80;;;;;;5031442;28;20240;-70
2022/11/20 07:12:22;;;;;;;0.70;0.70;;;17.20;75.70;;;;;;5032521;28;20241;-70
2022/11/20 07:14:48;;;;;;;0.82;0.80;;;17.10;75.70;;;;;;5032552;28;20222;-70
2022/11/20 07:17:14;;;;;;;2.33;1.00;;;17.10;75.60;;;;;;5032888;28;20190;-70
2022/11/20 07:19:39;;;;;;;0.90;0.90;;;17.10;75.70;;;;;;5032584;28;20183;-70
2022/11/20 07:22:05;;;;;;;0.93;0.90;;;17.10;75.60;;;;;;5033473;28;20199;-70
2022/11/20 07:24:31;;;;;;;0.80;0.80;;;17.10;75.70;;;;;;5014995;28;20198;-70
2022/11/20 07:26:57;;;;;;;1.75;0.85;;;17.10;75.70;;;;;;5032025;28;20189;-70
2022/11/20 07:29:22;;;;;;;1.05;0.80;;;17.10;75.70;;;;;;5028109;28;20190;-70
2022/11/20 07:31:48;;;;;;;0.70;0.70;;;17.10;75.70;;;;;;5031135;28;20298;-71
2022/11/20 07:34:14;;;;;;;1.17;0.90;;;17.10;75.70;;;;;;5015659;28;20328;-71
2022/11/20 07:36:40;;;;;;;0.98;0.80;;;17.10;75.70;;;;;;5031524;28;20186;-70
2022/11/20 07:39:05;;;;;;;0.93;0.93;;;17.20;75.80;;;;;;5031767;28;20206;-70
2022/11/20 07:41:31;;;;;;;0.90;0.90;;;17.20;75.80;;;;;;5032173;28;20211;-70
2022/11/20 07:43:57;;;;;;;0.65;0.65;;;17.20;75.80;;;;;;5032142;28;20187;-70
2022/11/20 07:46:23;;;;;;;0.70;0.70;;;17.20;75.60;;;;;;5015822;28;20187;-71
2022/11/20 07:48:49;;;;;;;1.00;0.93;;;17.10;75.60;;;;;;5031974;28;20187;-70
2022/11/20 07:51:14;;;;;;;0.80;0.80;;;17.20;75.80;;;;;;5031678;28;20191;-71
2022/11/20 07:53:40;;;;;;;1.00;0.90;;;17.20;75.60;;;;;;5031661;28;20211;-71
2022/11/20 07:56:06;;;;;;;1.08;1.00;;;17.20;75.60;;;;;;5032108;28;20187;-70
2022/11/20 07:58:34;;;;;;;0.80;0.80;;;17.20;75.60;;;;;;5033104;28;20187;-71
2022/11/20 08:01:07;;;;;;;0.88;0.88;;;17.20;75.60;;;;;;5032609;28;20190;-71
2022/11/20 08:03:33;;;;;;;1.63;0.98;;;17.20;75.50;;;;;;5033597;28;20241;-71
2022/11/20 08:06:00;;;;;;;1.17;1.08;;;17.10;75.50;;;;;;5033750;28;20183;-71
2022/11/20 08:08:27;;;;;;;1.00;1.00;;;17.10;75.30;;;;;;5033692;28;20270;-71
2022/11/20 08:14:11;;;;;;;0.93;0.88;;;17.20;75.50;;;;;;5032066;28;20183;-70
2022/11/20 08:16:23;;;;;;;1.60;1.10;;;17.20;75.40;;;;;;5032101;28;20217;-71
2022/11/20 08:18:49;;;;;;;1.30;1.20;;;17.20;75.50;;;;;;5032248;28;20187;-71
2022/11/20 08:21:15;;;;;;;1.40;1.30;;;17.20;75.50;;;;;;5031792;28;20182;-71
2022/11/20 08:23:41;;;;;;;2.00;1.13;;;17.20;75.40;;;;;;5032154;28;20184;-71
2022/11/20 08:26:06;;;;;;;0.98;0.98;;;17.20;75.40;;;;;;5010423;28;20192;-71
2022/11/20 08:28:32;;;;;;;1.45;1.20;;;17.20;75.20;;;;;;5011567;28;20199;-70
2022/11/20 08:31:03;;;;;;;0.90;0.90;;;17.20;75.20;;;;;;5031400;28;20274;-71
2022/11/20 08:33:29;;;;;;;1.75;1.05;;;17.20;75.30;;;;;;5033196;28;20211;-70
2022/11/20 08:36:01;;;;;;;1.15;1.00;;;17.20;75.20;;;;;;5015531;28;20210;-70
2022/11/20 08:38:27;;;;;;;1.25;1.10;;;17.20;75.10;;;;;;5031894;28;20191;-71
2022/11/20 08:43:44;;;;;;;1.15;1.05;;;17.20;75.20;;;;;;5032016;28;20210;-71
2022/11/20 08:46:10;;;;;;;1.08;1.00;;;17.20;75.20;;;;;;5031716;28;20184;-70
2022/11/20 08:48:36;;;;;;;0.93;0.93;;;17.20;75.10;;;;;;5031753;28;20258;-70
2022/11/20 08:51:02;;;;;;;1.10;1.00;;;17.20;75.00;;;;;;5031400;28;20187;-69
2022/11/20 08:53:28;;;;;;;1.10;1.00;;;17.20;75.20;;;;;;5031529;28;20211;-70
2022/11/20 08:55:53;;;;;;;1.95;1.20;;;17.20;75.10;;;;;;5031536;28;20191;-70
2022/11/20 08:58:19;;;;;;;1.25;1.02;;;17.20;75.20;;;;;;5015302;28;20253;-70
2022/11/20 09:00:45;;;;;;;1.02;0.93;;;17.20;75.30;;;;;;5023957;28;20203;-70
2022/11/20 09:03:13;;;;;;;1.02;0.93;;;17.20;75.30;;;;;;5011393;28;20208;-70
2022/11/20 09:05:39;;;;;;;1.00;0.90;;;17.20;75.20;;;;;;5011607;28;20685;-70
2022/11/20 09:08:04;;;;;;;1.08;0.90;;;17.20;75.20;;;;;;5012466;28;20188;-70
2022/11/20 09:10:30;;;;;;;1.00;0.90;;;17.20;75.20;;;;;;5010221;28;20188;-70
2022/11/20 09:12:56;;;;;;;1.20;0.80;;;17.20;75.30;;;;;;5010840;28;20216;-70
2022/11/20 09:15:24;;;;;;;1.02;0.93;;;17.20;75.20;;;;;;5010853;28;20179;-70
2022/11/20 09:17:54;;;;;;;1.40;1.20;;;17.20;76.00;;;;;;5011427;28;20188;-70
2022/11/20 09:20:20;;;;;;;1.08;1.00;;;17.20;75.30;;;;;;5012614;28;20184;-70
2022/11/20 09:22:46;;;;;;;1.00;1.00;;;17.20;75.10;;;;;;5010600;28;20207;-70
2022/11/20 09:25:12;;;;;;;1.05;1.00;;;17.20;75.10;;;;;;4994957;28;20267;-70
2022/11/20 09:27:37;;;;;;;1.98;1.05;;;17.20;75.10;;;;;;5011131;28;20195;-71
2022/11/20 09:30:04;;;;;;;1.50;1.13;;;17.20;75.10;;;;;;4998486;28;20187;-71
2022/11/20 09:32:30;;;;;;;1.85;1.15;;;17.20;75.00;;;;;;5010297;28;20231;-71
2022/11/20 09:34:56;;;;;;;1.23;1.13;;;17.20;75.00;;;;;;5010103;28;20184;-71
2022/11/20 09:37:22;;;;;;;1.05;1.00;;;17.20;75.00;;;;;;5012404;28;20181;-70
2022/11/20 09:39:47;;;;;;;2.95;1.15;;;17.20;75.10;;;;;;4994723;28;20215;-70
2022/11/20 09:42:32;;;;;;;1.05;0.95;;;17.20;75.00;;;;;;5011959;28;20246;-70
2022/11/20 09:45:47;;;;;;;1.30;0.93;;;17.20;75.10;;;;;;4994534;28;20625;-70
2022/11/20 09:48:40;;;;;;;2.67;0.82;;;17.20;75.10;;;;;;5011202;28;20279;-71
2022/11/20 09:51:32;;;;;;;1.63;0.90;;;17.20;75.20;;;;;;5010533;28;20613;-70
2022/11/20 09:54:18;;;;;;;1.88;1.30;;;17.20;75.10;;;;;;5025581;28;20215;-70
2022/11/20 09:57:00;;;;;;;1.45;1.15;;;17.20;75.00;;;;;;5031621;28;20222;-70
2022/11/20 09:59:44;;;;;;;1.50;1.33;;;17.20;75.10;;;;;;5013964;28;20186;-70
2022/11/20 10:02:29;;;;;;;1.52;1.10;;;17.20;75.20;;;;;;5029581;28;20708;-70
2022/11/20 10:05:03;;;;;;;2.65;1.58;;;17.20;75.30;;;;;;5043447;28;20187;-71
2022/11/20 10:07:47;;;;;;;1.20;1.10;;;17.20;75.20;;;;;;5010783;28;20210;-70
2022/11/20 10:10:33;;;;;;;1.20;1.08;;;17.20;75.20;;;;;;5011306;28;20262;-70
2022/11/20 10:13:31;;;;;;;1.55;1.20;;;17.20;75.20;;;;;;5010277;28;20241;-70
2022/11/20 10:16:24;;;;;;;1.30;1.20;;;17.20;75.20;;;;;;5012002;28;20180;-70
2022/11/20 10:19:15;;;;;;;1.52;1.05;;;17.20;75.30;;;;;;5029899;28;20187;-70
2022/11/20 10:21:55;;;;;;;1.20;1.10;;;17.20;75.20;;;;;;5032161;28;20231;-70
2022/11/20 10:24:50;;;;;;;2.75;1.38;;;17.20;75.20;;;;;;5014882;28;20190;-70
2022/11/20 10:27:46;;;;;;;2.63;1.40;;;17.20;75.20;;;;;;5011080;28;20203;-71
2022/11/20 10:30:16;;;;;;;1.30;1.20;;;17.20;75.10;;;;;;5028534;28;20195;-70
2022/11/20 10:33:23;;;;;;;2.63;1.20;;;17.20;75.10;;;;;;5012561;28;20305;-70
2022/11/20 10:36:10;;;;;;;3.60;1.27;;;17.20;75.10;;;;;;5018678;28;20199;-70
2022/11/20 10:38:44;;;;;;;2.03;1.38;;;17.20;75.10;;;;;;5031944;28;20241;-71
2022/11/20 10:41:30;;;;;;;1.55;1.45;;;17.20;75.10;;;;;;5031133;28;20183;-71
2022/11/20 10:44:09;;;;;;;2.53;1.17;;;17.20;75.20;;;;;;5030401;28;20191;-71
2022/11/20 10:46:43;;;;;;;2.45;1.40;;;17.20;75.10;;;;;;5030405;28;20660;-71
2022/11/20 10:49:19;;;;;;;1.35;1.20;;;17.20;75.20;;;;;;5013816;28;20210;-70
2022/11/20 10:52:26;;;;;;;2.20;1.23;;;17.20;75.10;;;;;;5029321;28;20623;-71
2022/11/20 10:55:38;;;;;;;1.95;1.38;;;17.20;75.20;;;;;;5030466;28;20223;-70
2022/11/20 10:58:28;;;;;;;2.25;1.70;;;17.20;75.20;;;;;;5030157;28;20254;-70
2022/11/20 11:01:25;;;;;;;1.50;1.40;;;17.20;75.20;;;;;;5012868;28;20207;-70
2022/11/20 11:03:55;;;;;;;1.85;1.65;;;17.20;75.20;;;;;;5022815;28;20199;-70
2022/11/20 11:06:36;;;;;;;3.22;1.83;;;17.20;75.20;;;;;;5030838;28;20183;-70
2022/11/20 11:09:16;;;;;;;2.05;1.70;;;17.20;75.10;;;;;;5013076;28;20191;-70
2022/11/20 11:11:42;;;;;;;1.98;1.73;;;17.20;75.20;;;;;;5028976;28;20673;-70
2022/11/20 11:14:14;;;;;;;2.75;1.77;;;17.20;75.30;;;;;;5030903;28;20273;-70
2022/11/20 11:16:53;;;;;;;2.38;1.60;;;17.20;75.20;;;;;;5020036;28;20188;-71
2022/11/20 11:19:19;;;;;;;2.13;1.73;;;17.20;75.20;;;;;;5009245;28;20281;-70
2022/11/20 11:21:56;;;;;;;1.83;1.50;;;17.20;75.20;;;;;;4992574;28;20667;-71
2022/11/20 11:24:24;;;;;;;2.25;1.67;;;17.20;75.30;;;;;;4992820;28;20194;-71
2022/11/20 11:27:04;;;;;;;6.53;1.90;;;17.20;75.20;;;;;;5009811;28;20214;-71
2022/11/20 11:29:31;;;;;;;1.52;1.42;;;17.20;75.20;;;;;;5009311;28;20219;-70
2022/11/20 11:32:23;;;;;;;1.85;1.75;;;17.20;75.20;;;;;;5009245;28;20223;-70
2022/11/20 11:35:01;;;;;;;1.90;1.58;;;17.20;75.20;;;;;;5007375;28;20594;-70
2022/11/20 11:37:38;;;;;;;2.05;1.65;;;17.20;75.30;;;;;;5009275;28;20188;-70
2022/11/20 11:40:09;;;;;;;1.70;1.48;;;17.20;75.30;;;;;;5009579;28;20241;-70
2022/11/20 11:42:46;;;;;;;2.10;1.40;;;17.20;75.30;;;;;;5009030;28;20208;-71
2022/11/20 11:45:17;;;;;;;1.60;1.40;;;17.20;75.40;;;;;;4993167;28;20274;-70
2022/11/20 11:47:42;;;;;;;1.50;1.40;;;17.20;75.30;;;;;;5009199;28;20334;-70
2022/11/20 11:50:08;;;;;;;1.67;1.45;;;17.20;75.30;;;;;;5027171;28;20283;-70
2022/11/20 11:52:47;;;;;;;1.40;1.20;;;17.20;75.30;;;;;;5024679;28;20225;-70
2022/11/20 11:55:30;;;;;;;2.78;1.50;;;17.20;75.30;;;;;;5021434;28;20195;-70
2022/11/20 11:58:30;;;;;;;5.32;1.50;;;17.20;75.30;;;;;;5016116;28;20567;-70
2022/11/20 12:01:11;;;;;;;3.28;1.40;;;17.20;75.20;;;;;;5013080;28;20188;-70
2022/11/20 12:03:42;;;;;;;1.40;1.30;;;17.20;75.30;;;;;;5012755;28;20187;-70
2022/11/20 12:06:17;;;;;;;2.72;1.60;;;17.20;75.30;;;;;;5012912;28;20227;-70
2022/11/20 12:08:50;;;;;;;1.83;1.40;;;17.30;75.40;;;;;;5016864;28;20183;-70
2022/11/20 12:11:32;;;;;;;1.92;1.45;;;17.30;75.30;;;;;;5031234;28;20281;-71
2022/11/20 12:14:23;;;;;;;1.23;1.13;;;17.30;75.30;;;;;;5014341;28;20272;-71
2022/11/20 12:16:52;;;;;;;2.92;1.40;;;17.30;75.30;;;;;;5031650;28;20194;-70
2022/11/20 12:19:18;;;;;;;3.70;1.40;;;17.30;75.30;;;;;;5031111;28;20202;-71
2022/11/20 12:22:26;;;;;;;1.42;1.33;;;17.30;75.30;;;;;;5032033;28;20211;-71
2022/11/20 12:25:12;;;;;;;1.45;1.10;;;17.30;75.20;;;;;;5030974;28;20241;-71
2022/11/20 12:28:15;;;;;;;2.67;1.40;;;17.30;75.20;;;;;;5032037;28;20182;-71
2022/11/20 12:31:31;;;;;;;2.03;1.20;;;17.30;75.20;;;;;;5014294;28;20187;-70
2022/11/20 12:34:23;;;;;;;1.90;1.27;;;17.30;75.20;;;;;;5030667;28;20262;-70
2022/11/20 12:36:58;;;;;;;2.80;1.30;;;17.30;75.20;;;;;;5030600;28;20637;-70
2022/11/20 12:39:47;;;;;;;3.35;1.45;;;17.30;75.20;;;;;;5028670;28;20240;-70
2022/11/20 12:45:34;;;;;;;2.83;1.20;;;17.30;75.20;;;;;;5029985;28;20274;-70
2022/11/20 12:48:30;;;;;;;3.25;1.50;;;17.30;75.20;;;;;;5027306;28;20193;-70
2022/11/20 12:51:24;;;;;;;1.75;1.20;;;17.30;75.30;;;;;;5028257;28;20291;-70
2022/11/20 12:54:39;;;;;;;2.35;1.40;;;17.30;75.30;;;;;;5028325;28;20211;-71
2022/11/20 12:57:21;;;;;;;1.83;1.30;;;17.30;75.30;;;;;;5029362;28;20214;-70
2022/11/20 13:00:03;;;;;;;2.40;1.40;;;17.30;75.30;;;;;;5028484;28;20194;-70
2022/11/20 13:03:10;;;;;;;1.85;1.45;;;17.30;75.30;;;;;;5029321;28;20269;-70
2022/11/20 13:06:05;;;;;;;3.45;1.73;;;17.30;75.20;;;;;;5031182;28;20190;-70
2022/11/20 13:08:36;;;;;;;3.20;1.58;;;17.30;75.20;;;;;;5016589;28;20278;-70
2022/11/20 13:11:42;;;;;;;2.90;1.50;;;17.30;75.30;;;;;;4995160;28;20188;-70
2022/11/20 13:14:33;;;;;;;3.17;1.60;;;17.30;75.30;;;;;;5012405;28;20212;-70
2022/11/20 13:17:12;;;;;;;2.60;1.60;;;17.30;75.30;;;;;;5003671;28;20179;-70
2022/11/20 13:19:39;;;;;;;1.58;1.40;;;17.30;75.30;;;;;;5031327;28;20179;-70
2022/11/20 13:22:07;;;;;;;2.85;1.48;;;17.30;75.10;;;;;;5028137;28;20206;-70
2022/11/20 13:24:33;;;;;;;2.20;1.38;;;17.30;75.20;;;;;;5014127;28;20431;-70
2022/11/20 13:27:18;;;;;;;2.05;1.20;;;17.30;75.10;;;;;;5013296;28;20275;-70
2022/11/20 13:30:18;;;;;;;3.75;1.85;;;17.30;75.30;;;;;;5013893;28;20233;-70